Anna Therese — LK8594 — position and weather

sailwx.info

Track history (hours):
 
Tides and Currents Weather Stations Pressure Air Temp Water Temp Dewpoint Dewpoint Depression Visibility Wind Speed Wind Dir Waves Ship Positions

Anna Therese

Last reported at 2018-Jul-19 08:15 UTC. Time now 2018-Jul-21 13:45 UTC.
Position N 67°10' E 014°04'.

Length 11 m.

Type: Fishing. MMSI: 257182840.

Date/timePositionNaut miles runAvg speedWind from/ knotsBaromVisibWave heightAir tempDewpointWater temp
2018-Jul-19 08:15N 67°10' E 014°04'2 8.4
2018-Jul-19 07:59N 67°12' E 014°08'4 8.7
2018-Jul-19 07:30N 67°15' E 014°16'3 6.3
2018-Jul-19 06:59N 67°17' E 014°22'0 0.0
2018-Jul-19 06:29N 67°17' E 014°22'0 0.0
2018-Jul-19 05:59N 67°17' E 014°22'0 0.0
2018-Jul-19 05:29N 67°17' E 014°22'0 0.0
2018-Jul-19 04:59N 67°17' E 014°22'0 0.0
2018-Jul-19 04:29N 67°17' E 014°22'0 0.0
2018-Jul-19 03:59N 67°17' E 014°22'0 0.0
2018-Jul-19 03:29N 67°17' E 014°22'0 0.0
2018-Jul-19 02:59N 67°17' E 014°22'0 0.0
2018-Jul-19 02:29N 67°17' E 014°22'0 0.0
2018-Jul-19 01:59N 67°17' E 014°22'0 0.0
2018-Jul-19 01:29N 67°17' E 014°22'0 0.0
2018-Jul-19 00:59N 67°17' E 014°22'0 0.0
2018-Jul-19 00:29N 67°17' E 014°22'0 0.0
2018-Jul-18 23:59N 67°17' E 014°22'0 0.0
2018-Jul-18 23:29N 67°17' E 014°22'0 0.0
2018-Jul-18 22:59N 67°17' E 014°22'0 0.0
2018-Jul-18 22:29N 67°17' E 014°22'0 0.0
2018-Jul-18 21:59N 67°17' E 014°22'0 0.0
2018-Jul-18 21:26N 67°17' E 014°22'0 0.0
2018-Jul-18 20:59N 67°17' E 014°22'0 0.0
2018-Jul-18 20:29N 67°17' E 014°22'0 0.0
2018-Jul-18 19:59N 67°17' E 014°22'0 0.0
2018-Jul-18 19:29N 67°17' E 014°22'0 0.0
2018-Jul-18 18:59N 67°17' E 014°22'0 0.0
2018-Jul-18 18:29N 67°17' E 014°22'0 0.0
2018-Jul-18 17:59N 67°17' E 014°22'0 0.0
2018-Jul-18 17:29N 67°17' E 014°22'0 0.0
2018-Jul-18 16:59N 67°17' E 014°22'0 0.0
2018-Jul-18 16:29N 67°17' E 014°22'0 0.0
2018-Jul-18 15:59N 67°17' E 014°22'0 0.0
2018-Jul-18 15:29N 67°17' E 014°22'0 0.0
2018-Jul-18 14:59N 67°17' E 014°22'0 0.7
2018-Jul-18 14:30N 67°17' E 014°22'129 5.0
2018-Jul-17 12:55N 69°06' E 017°28'4 8.6
2018-Jul-17 12:30N 69°07' E 017°37'4 8.3
2018-Jul-17 11:59N 69°09' E 017°48'  
Track history (hours):
 
Tides and Currents Weather Stations Pressure Air Temp Water Temp Dewpoint Dewpoint Depression Visibility Wind Speed Wind Dir Waves Ship Positions

Anna Therese

Last reported at 2018-Jul-19 08:15 UTC. Time now 2018-Jul-21 13:45 UTC.
Position N 67°10' E 014°04'.

Length 11 m.

Type: Fishing. MMSI: 257182840.

Date/timePositionNaut miles runAvg speedWind from/ knotsBaromVisibWave heightAir tempDewpointWater temp
2018-Jul-19 08:15N 67°10' E 014°04'2 8.4
2018-Jul-19 07:59N 67°12' E 014°08'4 8.7
2018-Jul-19 07:30N 67°15' E 014°16'3 6.3
2018-Jul-19 06:59N 67°17' E 014°22'0 0.0
2018-Jul-19 06:29N 67°17' E 014°22'0 0.0
2018-Jul-19 05:59N 67°17' E 014°22'0 0.0
2018-Jul-19 05:29N 67°17' E 014°22'0 0.0
2018-Jul-19 04:59N 67°17' E 014°22'0 0.0
2018-Jul-19 04:29N 67°17' E 014°22'0 0.0
2018-Jul-19 03:59N 67°17' E 014°22'0 0.0
2018-Jul-19 03:29N 67°17' E 014°22'0 0.0
2018-Jul-19 02:59N 67°17' E 014°22'0 0.0
2018-Jul-19 02:29N 67°17' E 014°22'0 0.0
2018-Jul-19 01:59N 67°17' E 014°22'0 0.0
2018-Jul-19 01:29N 67°17' E 014°22'0 0.0
2018-Jul-19 00:59N 67°17' E 014°22'0 0.0
2018-Jul-19 00:29N 67°17' E 014°22'0 0.0
2018-Jul-18 23:59N 67°17' E 014°22'0 0.0
2018-Jul-18 23:29N 67°17' E 014°22'0 0.0
2018-Jul-18 22:59N 67°17' E 014°22'0 0.0
2018-Jul-18 22:29N 67°17' E 014°22'0 0.0
2018-Jul-18 21:59N 67°17' E 014°22'0 0.0
2018-Jul-18 21:26N 67°17' E 014°22'0 0.0
2018-Jul-18 20:59N 67°17' E 014°22'0 0.0
2018-Jul-18 20:29N 67°17' E 014°22'0 0.0
2018-Jul-18 19:59N 67°17' E 014°22'0 0.0
2018-Jul-18 19:29N 67°17' E 014°22'0 0.0
2018-Jul-18 18:59N 67°17' E 014°22'0 0.0
2018-Jul-18 18:29N 67°17' E 014°22'0 0.0
2018-Jul-18 17:59N 67°17' E 014°22'0 0.0
2018-Jul-18 17:29N 67°17' E 014°22'0 0.0
2018-Jul-18 16:59N 67°17' E 014°22'0 0.0
2018-Jul-18 16:29N 67°17' E 014°22'0 0.0
2018-Jul-18 15:59N 67°17' E 014°22'0 0.0
2018-Jul-18 15:29N 67°17' E 014°22'0 0.0
2018-Jul-18 14:59N 67°17' E 014°22'0 0.7
2018-Jul-18 14:30N 67°17' E 014°22'129 5.0
2018-Jul-17 12:55N 69°06' E 017°28'4 8.6
2018-Jul-17 12:30N 69°07' E 017°37'4 8.3
2018-Jul-17 11:59N 69°09' E 017°48'  

Dump ship's entire track history